createdAt,value
2019-02-11T00:01:10.694Z,17.80
2019-02-11T00:03:40.798Z,17.70
2019-02-11T00:06:10.859Z,17.70
2019-02-11T00:08:40.844Z,17.70
2019-02-11T00:11:10.857Z,17.70
2019-02-11T00:13:40.827Z,17.70
2019-02-11T00:16:11.012Z,17.70
2019-02-11T00:18:41.003Z,17.70
2019-02-11T00:21:10.980Z,17.70
2019-02-11T00:23:41.032Z,17.70
2019-02-11T00:26:11.107Z,17.70
2019-02-11T00:28:41.279Z,17.70
2019-02-11T00:31:11.396Z,17.70
2019-02-11T00:33:41.440Z,17.70
2019-02-11T00:36:11.538Z,17.70
2019-02-11T00:38:41.497Z,17.70
2019-02-11T00:41:11.435Z,17.70
2019-02-11T00:43:41.497Z,17.70
2019-02-11T00:46:11.616Z,17.70
2019-02-11T00:48:41.627Z,17.70
2019-02-11T00:51:11.730Z,17.70
2019-02-11T00:53:41.748Z,17.80
2019-02-11T00:56:11.850Z,17.80
2019-02-11T00:58:41.869Z,17.80
2019-02-11T01:01:11.983Z,17.80
2019-02-11T01:03:42.107Z,17.80
2019-02-11T01:06:12.114Z,17.80
2019-02-11T01:08:42.169Z,17.80
2019-02-11T01:11:12.200Z,17.80
2019-02-11T01:13:42.176Z,17.80
2019-02-11T01:16:12.266Z,17.80
2019-02-11T01:18:42.372Z,17.80
2019-02-11T01:21:12.375Z,17.80
2019-02-11T01:23:42.329Z,17.80
2019-02-11T01:26:12.492Z,17.80
2019-02-11T01:28:42.475Z,17.80
2019-02-11T01:31:12.455Z,17.80
2019-02-11T01:33:42.573Z,17.80
2019-02-11T01:36:12.569Z,17.80
2019-02-11T01:38:42.543Z,17.70
2019-02-11T01:41:12.643Z,17.70
2019-02-11T01:43:42.609Z,17.70
2019-02-11T01:46:12.712Z,17.70
2019-02-11T01:48:43.811Z,17.80
2019-02-11T01:51:13.805Z,17.70
2019-02-11T01:53:43.753Z,17.70
2019-02-11T01:56:13.918Z,17.70
2019-02-11T01:58:43.864Z,17.70
2019-02-11T02:01:14.006Z,17.70
2019-02-11T02:03:44.176Z,17.70
2019-02-11T02:06:14.320Z,17.70
2019-02-11T02:08:44.352Z,17.70
2019-02-11T02:11:14.395Z,17.70
2019-02-11T02:13:45.073Z,17.70
2019-02-11T02:16:15.376Z,17.70
2019-02-11T02:18:45.351Z,17.70
2019-02-11T02:21:15.351Z,17.70
2019-02-11T02:23:45.549Z,17.70
2019-02-11T02:26:15.590Z,17.70
2019-02-11T02:28:45.642Z,17.70
2019-02-11T02:31:15.714Z,17.70
2019-02-11T02:33:45.794Z,17.70
2019-02-11T02:36:15.851Z,17.70
2019-02-11T02:38:45.923Z,17.60
2019-02-11T02:41:15.965Z,17.60
2019-02-11T02:43:54.887Z,17.60
2019-02-11T02:46:17.760Z,17.60
2019-02-11T02:48:47.732Z,17.60
2019-02-11T02:51:17.690Z,17.60
2019-02-11T02:53:47.800Z,17.60
2019-02-11T02:56:17.829Z,17.60
2019-02-11T02:58:47.935Z,17.60
2019-02-11T03:01:18.056Z,17.60
2019-02-11T03:03:48.003Z,17.60
2019-02-11T03:06:18.239Z,17.50
2019-02-11T03:08:48.422Z,17.50
2019-02-11T03:11:18.469Z,17.50
2019-02-11T03:13:48.524Z,17.60
2019-02-11T03:16:18.770Z,17.50
2019-02-11T03:18:48.776Z,17.50
2019-02-11T03:21:18.866Z,17.50
2019-02-11T03:23:48.925Z,17.50
2019-02-11T03:26:19.007Z,17.50
2019-02-11T03:28:49.270Z,17.50
2019-02-11T03:31:19.271Z,17.50
2019-02-11T03:33:49.237Z,17.50
2019-02-11T03:36:19.326Z,17.40
2019-02-11T03:38:49.276Z,17.50
2019-02-11T03:41:19.263Z,17.40
2019-02-11T03:43:49.344Z,17.40
2019-02-11T03:46:19.433Z,17.50
2019-02-11T03:48:49.432Z,17.50
2019-02-11T03:51:19.668Z,17.40
2019-02-11T03:53:49.666Z,17.40
2019-02-11T03:56:20.014Z,17.40
2019-02-11T03:58:50.091Z,17.40
2019-02-11T04:01:20.049Z,17.40
2019-02-11T04:03:50.230Z,17.40
2019-02-11T04:06:20.264Z,17.40
2019-02-11T04:08:50.295Z,17.40
2019-02-11T04:11:20.435Z,17.40
2019-02-11T04:13:50.429Z,17.40
2019-02-11T04:16:20.502Z,17.40
2019-02-11T04:18:50.577Z,17.40
2019-02-11T04:21:20.681Z,17.40
2019-02-11T04:23:50.750Z,17.40
2019-02-11T04:26:20.708Z,17.40
2019-02-11T04:28:50.897Z,17.40
2019-02-11T04:31:21.090Z,17.40
2019-02-11T04:33:51.044Z,17.40
2019-02-11T04:36:21.149Z,17.40
2019-02-11T04:38:51.229Z,17.40
2019-02-11T04:41:21.301Z,17.40
2019-02-11T04:43:51.395Z,17.40
2019-02-11T04:46:21.540Z,17.30
2019-02-11T04:48:51.504Z,17.40
2019-02-11T04:51:21.559Z,17.40
2019-02-11T04:53:51.522Z,17.30
2019-02-11T04:56:21.513Z,17.40
2019-02-11T04:58:51.589Z,17.30
2019-02-11T05:01:21.706Z,17.30
2019-02-11T05:03:51.677Z,17.40
2019-02-11T05:06:21.743Z,17.30
2019-02-11T05:08:51.763Z,17.40
2019-02-11T05:11:21.738Z,17.40
2019-02-11T05:13:51.794Z,17.30
2019-02-11T05:16:21.773Z,17.40
2019-02-11T05:18:51.747Z,17.30
2019-02-11T05:21:21.916Z,17.30
2019-02-11T05:23:51.925Z,17.30
2019-02-11T05:26:22.887Z,17.30
2019-02-11T05:28:52.967Z,17.30
2019-02-11T05:31:22.927Z,17.30
2019-02-11T05:33:52.973Z,17.30
2019-02-11T05:36:22.955Z,17.30
2019-02-11T05:38:52.938Z,17.30
2019-02-11T05:41:23.037Z,17.30
2019-02-11T05:43:53.113Z,17.30
2019-02-11T05:46:23.251Z,17.30
2019-02-11T05:48:53.360Z,17.30
2019-02-11T05:51:23.354Z,17.30
2019-02-11T05:53:53.453Z,17.20
2019-02-11T05:56:23.505Z,17.20
2019-02-11T05:58:53.483Z,17.20
2019-02-11T06:01:23.597Z,17.30
2019-02-11T06:03:53.668Z,17.20
2019-02-11T06:06:23.883Z,17.20
2019-02-11T06:08:53.915Z,17.10
2019-02-11T06:11:23.996Z,17.10
2019-02-11T06:13:54.067Z,17.10
2019-02-11T06:16:24.082Z,17.10
2019-02-11T06:18:54.155Z,17.10
2019-02-11T06:21:24.387Z,17.10
2019-02-11T06:23:54.551Z,17.10
2019-02-11T06:26:24.593Z,17.10
2019-02-11T06:28:54.810Z,17.10
2019-02-11T06:31:24.805Z,17.10
2019-02-11T06:33:54.883Z,17.10
2019-02-11T06:36:25.036Z,17.10
2019-02-11T06:38:55.065Z,17.10
2019-02-11T06:41:25.052Z,17.10
2019-02-11T06:43:55.091Z,17.10
2019-02-11T06:46:25.164Z,17.10
2019-02-11T06:48:55.239Z,17.10
2019-02-11T06:51:25.311Z,17.10
2019-02-11T06:53:55.280Z,17.10
2019-02-11T06:56:25.287Z,17.10
2019-02-11T06:58:55.428Z,17.10
2019-02-11T07:01:25.517Z,17.00
2019-02-11T07:03:55.598Z,17.00
2019-02-11T07:06:25.831Z,17.10
2019-02-11T07:08:55.953Z,17.00
2019-02-11T07:11:25.925Z,17.00
2019-02-11T07:13:55.930Z,17.00
2019-02-11T07:16:25.980Z,17.00
2019-02-11T07:18:55.949Z,17.00
2019-02-11T07:21:26.013Z,17.00
2019-02-11T07:23:56.172Z,17.00
2019-02-11T07:26:26.145Z,17.00
2019-02-11T07:28:56.131Z,17.00
2019-02-11T07:31:26.161Z,17.00
2019-02-11T07:33:56.265Z,17.00
2019-02-11T07:36:26.233Z,16.90
2019-02-11T07:38:56.385Z,17.00
2019-02-11T07:41:35.916Z,17.00
2019-02-11T07:44:24.956Z,17.00
2019-02-11T07:46:58.382Z,17.00
2019-02-11T07:49:28.533Z,16.90
2019-02-11T07:51:58.497Z,16.90
2019-02-11T07:54:28.489Z,16.90
2019-02-11T07:56:58.510Z,16.90
2019-02-11T07:59:28.582Z,17.00
2019-02-11T08:01:58.682Z,17.00
2019-02-11T08:04:28.768Z,17.00
2019-02-11T08:06:58.974Z,16.90
2019-02-11T08:09:28.955Z,17.00
2019-02-11T08:12:00.380Z,17.00
2019-02-11T08:14:30.821Z,17.00
2019-02-11T08:17:00.912Z,17.00
2019-02-11T08:19:31.216Z,17.00
2019-02-11T08:22:01.185Z,17.00
2019-02-11T08:24:31.191Z,17.00
2019-02-11T08:27:01.423Z,17.00
2019-02-11T08:29:31.378Z,17.00
2019-02-11T08:32:01.426Z,17.00
2019-02-11T08:34:31.567Z,17.00
2019-02-11T08:37:01.569Z,17.00
2019-02-11T08:39:31.613Z,16.90
2019-02-11T08:42:01.645Z,16.90
2019-02-11T08:44:33.302Z,16.90
2019-02-11T08:47:03.508Z,16.90
2019-02-11T08:49:33.679Z,16.90
2019-02-11T08:52:03.654Z,16.90
2019-02-11T08:54:33.625Z,16.80
2019-02-11T08:57:03.818Z,16.90
2019-02-11T08:59:33.892Z,16.90
2019-02-11T09:02:04.093Z,16.90
2019-02-11T09:04:34.256Z,16.90
2019-02-11T09:07:04.474Z,16.90
2019-02-11T09:09:34.583Z,16.90
2019-02-11T09:12:04.750Z,17.00
2019-02-11T09:14:34.784Z,17.00
2019-02-11T09:17:10.108Z,17.00
2019-02-11T09:19:36.795Z,17.00
2019-02-11T09:22:07.746Z,17.00
2019-02-11T09:24:38.091Z,17.00
2019-02-11T09:27:08.390Z,17.10
2019-02-11T09:29:38.578Z,17.10
2019-02-11T09:32:08.887Z,17.10
2019-02-11T09:34:39.074Z,17.10
2019-02-11T09:37:09.259Z,17.10
2019-02-11T09:39:39.303Z,17.10
2019-02-11T09:42:09.499Z,17.10
2019-02-11T09:44:39.628Z,17.10
2019-02-11T09:47:09.735Z,17.00
2019-02-11T09:49:39.782Z,17.00
2019-02-11T09:52:10.077Z,17.10
2019-02-11T09:54:40.166Z,17.00
2019-02-11T09:57:10.127Z,17.00
2019-02-11T09:59:40.171Z,17.00
2019-02-11T10:02:10.359Z,17.00
2019-02-11T10:04:40.407Z,17.00
2019-02-11T10:07:10.480Z,17.00
2019-02-11T10:09:40.591Z,17.00
2019-02-11T10:12:10.842Z,16.90
2019-02-11T10:14:40.799Z,17.00
2019-02-11T10:17:10.843Z,16.90
2019-02-11T10:19:40.929Z,16.90
2019-02-11T10:22:10.983Z,16.90
2019-02-11T10:24:41.052Z,16.90
2019-02-11T10:27:11.256Z,16.90
2019-02-11T10:29:41.373Z,16.90
2019-02-11T10:32:11.506Z,16.90
2019-02-11T10:34:41.529Z,16.90
2019-02-11T10:37:11.671Z,16.90
2019-02-11T10:39:41.819Z,17.00
2019-02-11T10:42:11.884Z,17.00
2019-02-11T10:44:41.956Z,17.00
2019-02-11T10:47:12.211Z,17.00
2019-02-11T10:49:42.258Z,17.00
2019-02-11T10:52:13.596Z,17.00
2019-02-11T10:54:43.542Z,17.00
2019-02-11T10:57:13.700Z,17.10
2019-02-11T10:59:43.868Z,17.00
2019-02-11T11:02:14.050Z,17.10
2019-02-11T11:04:44.311Z,17.10
2019-02-11T11:07:14.378Z,17.10
2019-02-11T11:09:44.675Z,17.10
2019-02-11T11:12:14.839Z,17.10
2019-02-11T11:14:44.828Z,17.10
2019-02-11T11:17:14.991Z,17.10
2019-02-11T11:19:45.270Z,17.10
2019-02-11T11:22:15.233Z,17.10
2019-02-11T11:24:45.234Z,17.10
2019-02-11T11:27:15.464Z,17.10
2019-02-11T11:29:45.411Z,17.20
2019-02-11T11:32:15.692Z,17.20
2019-02-11T11:34:45.952Z,17.20
2019-02-11T11:37:16.043Z,17.20
2019-02-11T11:39:46.026Z,17.20
2019-02-11T11:42:16.137Z,17.10
2019-02-11T11:44:46.351Z,17.20
2019-02-11T11:47:17.052Z,17.20
2019-02-11T11:49:47.250Z,17.20
2019-02-11T11:52:18.338Z,17.10
2019-02-11T11:54:48.448Z,17.10
2019-02-11T11:57:19.496Z,17.10
2019-02-11T11:59:49.456Z,17.20
2019-02-11T12:02:19.614Z,17.10
2019-02-11T12:04:49.665Z,17.20
2019-02-11T12:07:19.793Z,17.20
2019-02-11T12:09:50.089Z,17.20
2019-02-11T12:12:20.340Z,17.10
2019-02-11T12:14:50.375Z,17.10
2019-02-11T12:17:20.559Z,17.20
2019-02-11T12:19:50.525Z,17.10
2019-02-11T12:22:20.581Z,17.20
2019-02-11T12:24:50.708Z,17.20
2019-02-11T12:27:20.869Z,17.20
2019-02-11T12:29:50.852Z,17.20
2019-02-11T12:32:20.983Z,17.20
2019-02-11T12:34:51.195Z,17.20
2019-02-11T12:37:21.143Z,17.20
2019-02-11T12:39:51.168Z,17.30
2019-02-11T12:42:21.236Z,17.30
2019-02-11T12:44:51.331Z,17.30
2019-02-11T12:47:21.283Z,17.20
2019-02-11T12:49:51.367Z,17.20
2019-02-11T12:52:21.347Z,17.30
2019-02-11T12:54:51.315Z,17.30
2019-02-11T12:57:21.386Z,17.30
2019-02-11T12:59:51.479Z,17.30
2019-02-11T13:02:21.665Z,17.30
2019-02-11T13:04:51.899Z,17.30
2019-02-11T13:07:22.017Z,17.30
2019-02-11T13:09:52.122Z,17.30
2019-02-11T13:12:22.259Z,17.30
2019-02-11T13:14:52.276Z,17.30
2019-02-11T13:17:33.285Z,17.30
2019-02-11T13:20:07.371Z,17.30
2019-02-11T13:22:25.820Z,17.30
2019-02-11T13:24:56.034Z,17.30
2019-02-11T13:27:26.076Z,17.30
2019-02-11T13:29:56.178Z,17.40
2019-02-11T13:32:26.367Z,17.30
2019-02-11T13:34:56.438Z,17.30
2019-02-11T13:37:26.396Z,17.40
2019-02-11T13:39:56.436Z,17.40
2019-02-11T13:42:26.485Z,17.40
2019-02-11T13:44:56.633Z,17.40
2019-02-11T13:47:26.732Z,17.40
2019-02-11T13:49:56.830Z,17.40
2019-02-11T13:52:26.889Z,17.40
2019-02-11T13:54:56.905Z,17.40
2019-02-11T13:57:27.174Z,17.40
2019-02-11T13:59:57.340Z,17.50
2019-02-11T14:02:27.405Z,17.50
2019-02-11T14:04:57.454Z,17.40
2019-02-11T14:07:27.580Z,17.40
2019-02-11T14:10:01.496Z,17.40
2019-02-11T14:12:29.425Z,17.40
2019-02-11T14:14:59.397Z,17.40
2019-02-11T14:17:29.491Z,17.40
2019-02-11T14:20:03.320Z,17.50
2019-02-11T14:22:33.398Z,17.50
2019-02-11T14:25:03.838Z,17.50
2019-02-11T14:27:33.801Z,17.50
2019-02-11T14:30:03.760Z,17.50
2019-02-11T14:32:33.883Z,17.50
2019-02-11T14:35:04.122Z,17.50
2019-02-11T14:37:34.286Z,17.50
2019-02-11T14:40:04.343Z,17.60
2019-02-11T14:42:34.295Z,17.50
2019-02-11T14:45:04.449Z,17.60
2019-02-11T14:47:34.539Z,17.50
2019-02-11T14:50:04.848Z,17.50
2019-02-11T14:52:34.921Z,17.50
2019-02-11T14:55:05.120Z,17.50
2019-02-11T14:57:35.210Z,17.50
2019-02-11T15:00:07.773Z,17.60
2019-02-11T15:02:37.871Z,17.50
2019-02-11T15:05:08.040Z,17.50
2019-02-11T15:07:39.199Z,17.50
2019-02-11T15:10:10.036Z,17.50
2019-02-11T15:12:40.120Z,17.50
2019-02-11T15:15:10.519Z,17.50
2019-02-11T15:17:40.898Z,17.50
2019-02-11T15:20:12.668Z,17.50
2019-02-11T15:22:42.763Z,17.50
2019-02-11T15:25:14.839Z,17.50
2019-02-11T15:27:44.918Z,17.50
2019-02-11T15:30:16.931Z,17.50
2019-02-11T15:32:47.140Z,17.50
2019-02-11T15:35:17.254Z,17.50
2019-02-11T15:37:47.227Z,17.40
2019-02-11T15:40:19.728Z,17.50
2019-02-11T15:42:49.790Z,17.50
2019-02-11T15:45:19.847Z,17.50
2019-02-11T15:47:50.100Z,17.50
2019-02-11T15:50:20.206Z,17.50
2019-02-11T15:52:50.272Z,17.50
2019-02-11T15:55:20.727Z,17.50
2019-02-11T15:57:50.769Z,17.50
2019-02-11T16:00:22.019Z,17.50
2019-02-11T16:02:52.367Z,17.80
2019-02-11T16:05:22.472Z,17.50
2019-02-11T16:07:52.615Z,17.50
2019-02-11T16:10:24.766Z,17.40
2019-02-11T16:12:54.854Z,17.50
2019-02-11T16:15:26.275Z,17.50
2019-02-11T16:17:56.356Z,17.50
2019-02-11T16:20:26.434Z,17.50
2019-02-11T16:22:56.717Z,17.50
2019-02-11T16:25:26.890Z,17.50
2019-02-11T16:27:58.011Z,17.50
2019-02-11T16:30:28.301Z,17.50
2019-02-11T16:32:58.313Z,17.60
2019-02-11T16:35:28.399Z,17.50
2019-02-11T16:38:00.322Z,17.60
2019-02-11T16:40:30.621Z,17.50
2019-02-11T16:43:00.709Z,17.50
2019-02-11T16:45:30.730Z,17.60
2019-02-11T16:48:00.694Z,17.60
2019-02-11T16:50:30.963Z,17.50
2019-02-11T16:53:01.029Z,17.50
2019-02-11T16:55:30.958Z,17.60
2019-02-11T16:58:00.979Z,17.50
2019-02-11T17:00:31.097Z,17.60
2019-02-11T17:03:01.092Z,17.60
2019-02-11T17:05:31.040Z,17.50
2019-02-11T17:08:01.217Z,17.60
2019-02-11T17:10:31.313Z,17.60
2019-02-11T17:13:01.395Z,17.60
2019-02-11T17:15:31.752Z,17.60
2019-02-11T17:18:02.139Z,17.60
2019-02-11T17:20:32.218Z,17.60
2019-02-11T17:23:02.315Z,17.50
2019-02-11T17:25:32.460Z,17.50
2019-02-11T17:28:02.422Z,17.50
2019-02-11T17:30:32.451Z,17.50
2019-02-11T17:33:02.654Z,17.50
2019-02-11T17:35:32.673Z,17.50
2019-02-11T17:38:02.710Z,17.50
2019-02-11T17:40:32.770Z,17.50
2019-02-11T17:43:02.955Z,17.50
2019-02-11T17:45:33.054Z,17.50
2019-02-11T17:48:03.205Z,17.50
2019-02-11T17:50:33.325Z,17.50
2019-02-11T17:53:04.816Z,17.50
2019-02-11T17:55:34.772Z,17.50
2019-02-11T17:58:04.940Z,17.50
2019-02-11T18:00:41.055Z,17.50
2019-02-11T18:03:11.118Z,17.50
2019-02-11T18:05:41.062Z,17.50
2019-02-11T18:08:11.171Z,17.50
2019-02-11T18:10:41.170Z,17.50
2019-02-11T18:13:11.124Z,17.50
2019-02-11T18:15:41.295Z,17.50
2019-02-11T18:18:11.480Z,17.50
2019-02-11T18:20:41.462Z,17.50
2019-02-11T18:23:11.625Z,17.50
2019-02-11T18:25:41.688Z,17.50
2019-02-11T18:28:11.844Z,17.60
2019-02-11T18:30:41.998Z,17.60
2019-02-11T18:33:11.946Z,17.50
2019-02-11T18:35:42.035Z,17.50
2019-02-11T18:38:12.099Z,17.50
2019-02-11T18:40:42.108Z,17.50
2019-02-11T18:43:12.066Z,17.60
2019-02-11T18:45:42.229Z,17.60
2019-02-11T18:48:12.428Z,17.60
2019-02-11T18:50:42.363Z,17.60
2019-02-11T18:53:12.508Z,17.60
2019-02-11T18:55:42.519Z,17.60
2019-02-11T18:58:12.736Z,17.60
2019-02-11T19:00:42.922Z,17.60
2019-02-11T19:03:12.882Z,17.60
2019-02-11T19:05:44.163Z,17.50
2019-02-11T19:08:14.178Z,17.60
2019-02-11T19:10:44.325Z,17.50
2019-02-11T19:13:14.420Z,17.50
2019-02-11T19:15:44.503Z,17.50
2019-02-11T19:18:14.557Z,17.50
2019-02-11T19:20:44.630Z,17.50
2019-02-11T19:23:14.608Z,17.50
2019-02-11T19:25:44.574Z,17.40
2019-02-11T19:28:14.993Z,17.50
2019-02-11T19:30:45.048Z,17.40
2019-02-11T19:33:15.139Z,17.40
2019-02-11T19:35:45.216Z,17.50
2019-02-11T19:38:15.241Z,17.50
2019-02-11T19:40:45.395Z,17.50
2019-02-11T19:43:15.447Z,17.50
2019-02-11T19:45:45.494Z,17.50
2019-02-11T19:48:15.585Z,17.50
2019-02-11T19:50:45.567Z,17.50
2019-02-11T19:53:15.711Z,17.50
2019-02-11T19:55:45.943Z,17.50
2019-02-11T19:58:16.026Z,17.50
2019-02-11T20:00:46.505Z,17.50
2019-02-11T20:03:18.008Z,17.50
2019-02-11T20:05:48.209Z,17.50
2019-02-11T20:08:18.659Z,17.50
2019-02-11T20:10:49.178Z,17.50
2019-02-11T20:13:19.158Z,17.50
2019-02-11T20:15:49.389Z,17.40
2019-02-11T20:18:19.644Z,17.40
2019-02-11T20:20:49.789Z,17.40
2019-02-11T20:23:19.883Z,17.40
2019-02-11T20:25:50.091Z,17.40
2019-02-11T20:28:20.165Z,17.40
2019-02-11T20:30:50.647Z,17.30
2019-02-11T20:33:20.587Z,17.40
2019-02-11T20:35:50.732Z,17.40
2019-02-11T20:38:21.237Z,17.40
2019-02-11T20:40:51.313Z,17.30
2019-02-11T20:43:21.503Z,17.30
2019-02-11T20:45:51.540Z,17.40
2019-02-11T20:48:21.647Z,17.30
2019-02-11T20:50:51.841Z,17.30
2019-02-11T20:53:22.098Z,17.30
2019-02-11T20:55:52.188Z,17.30
2019-02-11T20:58:22.437Z,17.30
2019-02-11T21:00:52.694Z,17.30
2019-02-11T21:03:22.924Z,17.30
2019-02-11T21:05:53.179Z,17.30
2019-02-11T21:08:23.390Z,17.30
2019-02-11T21:10:53.592Z,17.30
2019-02-11T21:13:23.830Z,17.20
2019-02-11T21:15:54.105Z,17.20
2019-02-11T21:18:24.245Z,17.20
2019-02-11T21:20:54.381Z,17.30
2019-02-11T21:23:24.444Z,17.30
2019-02-11T21:25:54.549Z,17.30
2019-02-11T21:28:24.693Z,17.20
2019-02-11T21:30:54.691Z,17.30
2019-02-11T21:33:24.702Z,17.30
2019-02-11T21:35:57.386Z,17.20
2019-02-11T21:38:27.471Z,17.20
2019-02-11T21:40:57.550Z,17.20
2019-02-11T21:43:27.574Z,17.20
2019-02-11T21:45:57.549Z,17.30
2019-02-11T21:48:27.713Z,17.30
2019-02-11T21:50:57.859Z,17.20
2019-02-11T21:53:27.844Z,17.30
2019-02-11T21:55:57.935Z,17.30
2019-02-11T21:58:28.010Z,17.30
2019-02-11T22:01:02.316Z,17.30
2019-02-11T22:03:30.380Z,17.30
2019-02-11T22:06:00.523Z,17.40
2019-02-11T22:08:30.559Z,17.30
2019-02-11T22:11:00.677Z,17.40
2019-02-11T22:13:30.728Z,17.40
2019-02-11T22:16:00.712Z,17.40
2019-02-11T22:18:30.775Z,17.40
2019-02-11T22:21:00.858Z,17.40
2019-02-11T22:23:30.821Z,17.40
2019-02-11T22:26:00.842Z,17.40
2019-02-11T22:28:31.063Z,17.40
2019-02-11T22:31:01.032Z,17.40
2019-02-11T22:33:31.113Z,17.40
2019-02-11T22:36:01.281Z,17.40
2019-02-11T22:38:31.243Z,17.40
2019-02-11T22:41:01.207Z,17.40
2019-02-11T22:43:31.363Z,17.50
2019-02-11T22:46:01.447Z,17.50
2019-02-11T22:48:31.441Z,17.40
2019-02-11T22:51:01.458Z,17.50
2019-02-11T22:53:31.420Z,17.40
2019-02-11T22:56:01.438Z,17.50
2019-02-11T22:58:31.816Z,17.40
2019-02-11T23:01:05.516Z,17.50
2019-02-11T23:03:37.024Z,17.40
2019-02-11T23:06:07.106Z,17.40
2019-02-11T23:08:37.351Z,17.40
2019-02-11T23:11:07.625Z,17.40
2019-02-11T23:13:37.688Z,17.50
2019-02-11T23:16:07.870Z,17.50
2019-02-11T23:18:37.889Z,17.40
2019-02-11T23:21:08.218Z,17.50
2019-02-11T23:23:38.297Z,17.50
2019-02-11T23:26:08.294Z,17.50
2019-02-11T23:28:38.287Z,17.40
2019-02-11T23:31:08.450Z,17.50
2019-02-11T23:33:38.498Z,17.40
2019-02-11T23:36:08.493Z,17.50
2019-02-11T23:38:38.606Z,17.50
2019-02-11T23:41:08.709Z,17.40
2019-02-11T23:43:38.794Z,17.50
2019-02-11T23:46:08.986Z,17.40
2019-02-11T23:48:38.932Z,17.50
2019-02-11T23:51:08.887Z,17.50
2019-02-11T23:53:39.037Z,17.50
2019-02-11T23:56:09.208Z,17.50
2019-02-11T23:58:39.156Z,17.50
